Time;durP1;ratioP1;P1;durP2;ratioP2;P2;SDS_P1;SDS_P2;PMS_P1;PMS_P2;Temp;Humidity;BMP_temperature;BMP_pressure;BME280_temperature;BME280_humidity;BME280_pressure;Samples;Min_cycle;Max_cycle;Signal;HPM_P1;HPM_P2
2021/03/31 00:00:32;;;;;;;25.60;13.08;;;;;;;6.06;44.92;101326.59;1687717;84;22301;-72
2021/03/31 00:03:03;;;;;;;29.57;12.88;;;;;;;6.06;44.72;101324.42;1687558;85;21697;-73
2021/03/31 00:05:31;;;;;;;24.87;13.30;;;;;;;6.06;44.33;101329.20;1714848;83;21193;-72
2021/03/31 00:08:00;;;;;;;25.70;12.98;;;;;;;6.04;44.99;101320.48;1716283;83;21180;-73
2021/03/31 00:10:37;;;;;;;22.40;12.53;;;;;;;6.01;44.51;101315.27;1710237;81;21293;-65
2021/03/31 00:13:05;;;;;;;36.50;16.02;;;;;;;6.01;45.09;101323.11;1669669;85;22254;-63
2021/03/31 00:15:33;;;;;;;28.77;13.55;;;;;;;6.04;45.61;101323.09;1682442;85;21220;-64
2021/03/31 00:18:07;;;;;;;30.97;13.78;;;;;;;6.06;46.25;101316.13;1682130;85;21189;-65
2021/03/31 00:20:37;;;;;;;24.00;12.43;;;;;;;6.06;45.07;101312.20;1682323;85;21196;-65
2021/03/31 00:23:10;;;;;;;24.30;12.00;;;;;;;6.07;45.45;101320.51;1682273;85;21185;-65
2021/03/31 00:25:39;;;;;;;21.55;11.25;;;;;;;6.06;44.37;101320.50;1687449;79;22164;-73
2021/03/31 00:28:09;;;;;;;22.10;11.88;;;;;;;6.04;43.99;101317.87;1752006;81;21250;-72
2021/03/31 00:30:38;;;;;;;23.30;11.70;;;;;;;6.04;44.55;101319.62;1752347;81;21204;-73
2021/03/31 00:33:06;;;;;;;23.18;10.98;;;;;;;6.03;43.90;101312.66;1751951;81;21149;-73
2021/03/31 00:35:34;;;;;;;25.45;12.25;;;;;;;6.02;44.18;101315.69;1749525;80;21141;-72
2021/03/31 00:38:05;;;;;;;24.92;12.43;;;;;;;6.04;44.31;101307.41;1748594;82;21391;-73
2021/03/31 00:40:44;;;;;;;26.37;11.08;;;;;;;6.04;44.35;101308.72;1743126;80;21101;-65
2021/03/31 00:43:12;;;;;;;23.92;11.80;;;;;;;6.04;44.52;101306.55;1712576;83;21221;-63
2021/03/31 00:45:41;;;;;;;25.02;12.45;;;;;;;6.02;46.35;101303.92;1710368;83;21146;-64
2021/03/31 00:50:57;;;;;;;22.35;12.73;;;;;;;6.06;45.95;101302.19;1775427;79;26708;-68
2021/03/31 00:53:36;;;;;;;26.65;12.88;;;;;;;6.00;45.48;101300.42;1713285;82;21195;-64
2021/03/31 00:56:06;;;;;;;22.70;11.97;;;;;;;5.99;44.30;101290.85;1705683;81;22342;-73
2021/03/31 00:58:34;;;;;;;27.05;14.20;;;;;;;6.00;44.94;101295.20;1663343;84;21186;-73
2021/03/31 01:01:04;;;;;;;24.02;12.23;;;;;;;6.00;44.67;101295.20;1690643;84;21234;-73
2021/03/31 01:03:32;;;;;;;23.32;11.40;;;;;;;5.99;45.07;101296.08;1690433;84;21176;-73
2021/03/31 01:06:01;;;;;;;24.25;12.30;;;;;;;5.98;46.01;101290.43;1690539;84;21143;-71
2021/03/31 01:08:29;;;;;;;25.77;12.58;;;;;;;5.93;45.27;101290.80;1690729;84;22256;-73
2021/03/31 01:10:58;;;;;;;25.57;12.18;;;;;;;5.92;45.40;101291.69;1695090;78;21125;-65
2021/03/31 01:13:50;;;;;;;25.00;12.93;;;;;;;5.88;46.64;101285.57;1716049;83;21588;-64
2021/03/31 01:16:40;;;;;;;21.35;11.65;;;;;;;5.88;46.49;101284.70;1669686;84;21214;-62
2021/03/31 01:19:33;;;;;;;28.20;14.40;;;;;;;5.86;46.91;101277.30;1711341;82;21119;-63
2021/03/31 01:22:51;;;;;;;31.27;14.73;;;;;;;5.83;46.95;101275.55;1731650;82;21238;-65
2021/03/31 01:26:02;;;;;;;31.95;14.63;;;;;;;5.79;47.78;101267.27;1731640;82;21667;-65
2021/03/31 01:29:11;;;;;;;27.22;14.03;;;;;;;5.74;48.21;101268.14;1714612;83;21131;-72
2021/03/31 01:32:26;;;;;;;29.70;15.32;;;;;;;5.73;48.24;101269.00;1714078;83;21159;-73
2021/03/31 01:34:56;;;;;;;25.82;13.58;;;;;;;5.68;48.30;101267.27;1712792;83;21202;-72
2021/03/31 01:37:29;;;;;;;28.38;14.75;;;;;;;5.66;49.99;101261.17;1713086;83;21742;-72
2021/03/31 01:39:59;;;;;;;24.23;14.45;;;;;;;5.64;48.51;101258.13;1713028;83;21195;-72
2021/03/31 01:42:29;;;;;;;31.57;13.98;;;;;;;5.62;49.30;101258.11;1743659;79;21103;-65
2021/03/31 01:44:59;;;;;;;27.48;15.03;;;;;;;5.60;49.63;101255.92;1739604;82;21146;-65
2021/03/31 01:47:30;;;;;;;27.15;14.35;;;;;;;5.57;48.91;101248.53;1734836;82;21142;-64
2021/03/31 01:50:00;;;;;;;32.75;15.90;;;;;;;5.55;49.81;101247.22;1715868;82;21221;-64
2021/03/31 01:52:28;;;;;;;26.40;14.15;;;;;;;5.53;49.12;101243.72;1744578;82;21151;-65
2021/03/31 01:54:57;;;;;;;27.93;15.10;;;;;;;5.53;50.61;101246.34;1744523;82;21155;-65
2021/03/31 01:57:25;;;;;;;29.67;16.45;;;;;;;5.47;50.62;101241.09;1712672;81;21228;-71
2021/03/31 01:59:53;;;;;;;31.82;15.48;;;;;;;5.46;50.90;101237.62;1670304;84;21234;-71
2021/03/31 02:02:23;;;;;;;30.90;16.00;;;;;;;5.45;51.73;101237.59;1700279;84;21456;-73
2021/03/31 02:04:53;;;;;;;25.35;14.68;;;;;;;5.43;51.50;101244.59;1700528;84;22172;-70
2021/03/31 02:07:22;;;;;;;27.87;15.00;;;;;;;5.42;52.70;101250.67;1700348;84;21226;-71
2021/03/31 02:09:50;;;;;;;27.85;14.87;;;;;;;5.42;52.56;101244.14;1700324;84;21610;-71
2021/03/31 02:12:22;;;;;;;25.50;14.68;;;;;;;5.38;53.27;101236.75;1683697;81;21219;-65
2021/03/31 02:14:51;;;;;;;27.77;14.30;;;;;;;5.40;54.05;101240.65;1677661;85;21466;-64
2021/03/31 02:17:25;;;;;;;24.82;13.45;;;;;;;5.36;53.18;101231.05;1677056;85;21235;-64
2021/03/31 02:19:53;;;;;;;28.12;14.03;;;;;;;5.37;52.61;101238.04;1677239;84;21207;-65
2021/03/31 02:22:25;;;;;;;24.27;14.07;;;;;;;5.34;53.22;101235.43;1677338;85;21678;-64
2021/03/31 02:24:53;;;;;;;29.45;14.60;;;;;;;5.30;53.29;101228.01;1677356;85;21183;-65
2021/03/31 02:27:22;;;;;;;25.95;14.13;;;;;;;5.28;52.91;101228.88;1683040;82;21471;-73
2021/03/31 02:29:53;;;;;;;26.45;14.73;;;;;;;5.27;54.21;101225.40;1706634;82;21585;-73
2021/03/31 02:32:22;;;;;;;26.33;15.35;;;;;;;5.27;54.81;101228.02;1694711;83;21146;-75
2021/03/31 02:34:53;;;;;;;28.50;15.55;;;;;;;5.22;54.07;101221.88;1694715;83;21250;-74
2021/03/31 02:37:21;;;;;;;28.80;15.45;;;;;;;5.17;55.52;101225.78;1694899;84;21218;-73
2021/03/31 02:39:51;;;;;;;26.52;14.95;;;;;;;5.13;56.50;101225.37;1694888;84;21248;-72
2021/03/31 02:42:21;;;;;;;32.05;15.90;;;;;;;5.07;56.83;101224.03;1681576;81;21227;-64
2021/03/31 02:44:52;;;;;;;24.98;15.03;;;;;;;5.05;57.84;101227.06;1662425;86;21587;-65
2021/03/31 02:47:27;;;;;;;28.15;15.10;;;;;;;5.00;58.21;101226.19;1662000;86;21215;-64
2021/03/31 02:49:58;;;;;;;26.77;15.68;;;;;;;4.98;58.45;101225.31;1662155;86;21229;-66
2021/03/31 02:52:27;;;;;;;32.50;15.13;;;;;;;4.93;58.61;101227.03;1662146;86;22525;-65
2021/03/31 02:54:55;;;;;;;26.33;15.53;;;;;;;4.89;58.29;101233.11;1662213;86;21246;-65
2021/03/31 02:57:25;;;;;;;29.55;16.73;;;;;;;4.88;58.75;101226.13;1670091;82;21835;-71
2021/03/31 02:59:53;;;;;;;36.50;15.70;;;;;;;4.85;60.33;101229.59;1709309;83;21608;-71
2021/03/31 03:02:22;;;;;;;31.23;16.35;;;;;;;4.80;59.36;101229.58;1709036;82;21669;-72
2021/03/31 03:04:51;;;;;;;33.05;17.57;;;;;;;4.75;59.75;101220.00;1652651;86;21284;-71
2021/03/31 03:07:19;;;;;;;32.78;17.23;;;;;;;4.73;60.35;101216.06;1709080;82;21645;-72
2021/03/31 03:09:49;;;;;;;28.67;16.93;;;;;;;4.69;59.73;101213.00;1709145;82;21193;-71
2021/03/31 03:12:18;;;;;;;27.87;15.55;;;;;;;4.69;60.95;101210.39;1682506;79;21195;-64
2021/03/31 03:14:51;;;;;;;31.33;16.77;;;;;;;4.69;61.54;101215.61;1662265;86;21619;-64
2021/03/31 03:17:18;;;;;;;29.95;15.78;;;;;;;4.66;62.15;101210.38;1661299;86;21392;-64
2021/03/31 03:19:47;;;;;;;29.98;16.70;;;;;;;4.61;60.93;101204.28;1660748;86;21135;-63
2021/03/31 03:22:16;;;;;;;33.02;17.05;;;;;;;4.58;63.07;101205.58;1660586;86;21227;-64
2021/03/31 03:24:47;;;;;;;33.10;15.88;;;;;;;4.54;61.58;101201.20;1620280;86;21171;-64
2021/03/31 03:27:16;;;;;;;32.47;17.70;;;;;;;4.51;62.92;101200.77;1690329;80;21622;-71
2021/03/31 03:29:50;;;;;;;29.55;15.10;;;;;;;4.49;62.75;101201.62;1726515;83;21211;-71
2021/03/31 03:32:18;;;;;;;31.85;16.05;;;;;;;4.48;62.19;101202.47;1726001;81;21323;-71
2021/03/31 03:34:49;;;;;;;26.65;16.30;;;;;;;4.46;62.13;101201.59;1726156;83;21224;-71
2021/03/31 03:37:18;;;;;;;30.90;16.97;;;;;;;4.46;62.28;101204.20;1726290;83;21442;-73
2021/03/31 03:39:47;;;;;;;31.27;16.50;;;;;;;4.46;62.74;101199.84;1726201;81;21165;-73
2021/03/31 03:42:15;;;;;;;29.95;17.20;;;;;;;4.44;62.37;101200.70;1723216;80;21420;-66
2021/03/31 03:44:45;;;;;;;32.45;17.55;;;;;;;4.43;63.03;101204.19;1762625;80;21162;-64
2021/03/31 03:47:13;;;;;;;33.15;16.87;;;;;;;4.44;62.99;101204.61;1759190;81;21195;-66
2021/03/31 03:49:43;;;;;;;33.33;17.37;;;;;;;4.42;62.31;101207.23;1759518;81;21187;-66
2021/03/31 03:52:12;;;;;;;29.95;17.50;;;;;;;4.42;63.16;101204.62;1759171;81;21809;-66
2021/03/31 03:54:44;;;;;;;33.78;16.77;;;;;;;4.44;64.02;101208.53;1759336;80;21379;-66
2021/03/31 03:57:12;;;;;;;30.92;16.93;;;;;;;4.45;63.49;101206.37;1713998;78;21221;-74
2021/03/31 03:59:43;;;;;;;27.25;15.65;;;;;;;4.44;63.47;101204.61;1658155;85;21220;-72
2021/03/31 04:02:11;;;;;;;31.68;17.45;;;;;;;4.46;65.01;101202.89;1656806;86;21247;-72
2021/03/31 04:04:40;;;;;;;27.37;15.78;;;;;;;4.46;64.44;101200.28;1656660;86;21155;-73
2021/03/31 04:07:08;;;;;;;29.90;17.23;;;;;;;4.44;64.75;101200.30;1657257;86;22394;-73
2021/03/31 04:09:38;;;;;;;28.38;16.60;;;;;;;4.46;65.24;101192.45;1626069;88;21718;-75
2021/03/31 04:12:08;;;;;;;31.87;16.57;;;;;;;4.46;66.01;101196.37;1673311;82;21171;-65
2021/03/31 04:14:41;;;;;;;31.37;17.50;;;;;;;4.47;66.00;101194.22;1710138;82;28390;-65
2021/03/31 04:17:12;;;;;;;33.80;17.90;;;;;;;4.45;66.20;101188.12;1737948;82;21258;-67
2021/03/31 04:19:41;;;;;;;35.63;17.75;;;;;;;4.41;66.28;101189.39;1700052;84;21483;-65
2021/03/31 04:22:10;;;;;;;36.90;17.70;;;;;;;4.37;66.44;101187.65;1737817;82;21200;-67
2021/03/31 04:24:39;;;;;;;29.45;16.85;;;;;;;4.33;66.77;101185.88;1737787;82;21188;-67
2021/03/31 04:27:10;;;;;;;33.90;17.07;;;;;;;4.33;67.17;101187.62;1735247;77;21202;-76
2021/03/31 04:29:40;;;;;;;30.32;17.60;;;;;;;4.32;68.25;101186.73;1705597;82;21612;-75
2021/03/31 04:32:15;;;;;;;35.33;18.30;;;;;;;4.32;68.05;101183.25;1753645;81;21231;-75
2021/03/31 04:34:45;;;;;;;37.17;19.52;;;;;;;4.29;67.29;101184.11;1761840;81;21177;-74
2021/03/31 04:37:16;;;;;;;31.73;18.67;;;;;;;4.29;67.78;101180.64;1757111;81;21185;-73
2021/03/31 04:39:44;;;;;;;33.58;18.40;;;;;;;4.27;66.13;101185.84;1759653;81;21142;-72
2021/03/31 04:42:13;;;;;;;31.82;18.32;;;;;;;4.27;66.83;101177.16;1742093;79;21177;-75
2021/03/31 04:44:40;;;;;;;34.88;18.75;;;;;;;4.26;66.08;101186.72;1719287;83;21455;-75
2021/03/31 04:47:10;;;;;;;34.73;19.20;;;;;;;4.26;66.46;101186.72;1703614;80;21196;-75
2021/03/31 04:49:38;;;;;;;31.20;18.70;;;;;;;4.25;66.90;101181.05;1728299;83;21232;-75
2021/03/31 04:52:09;;;;;;;32.75;18.32;;;;;;;4.27;67.16;101183.67;1726581;83;21183;-76
2021/03/31 04:54:40;;;;;;;33.75;19.02;;;;;;;4.26;66.77;101181.50;1696502;83;21214;-75
2021/03/31 04:57:09;;;;;;;31.05;19.15;;;;;;;4.26;67.28;101181.94;1725666;78;22170;-79
2021/03/31 04:59:37;;;;;;;32.15;16.10;;;;;;;4.25;67.26;101181.05;1761537;80;21215;-77
2021/03/31 05:02:05;;;;;;;33.08;17.90;;;;;;;4.24;67.60;101181.05;1760424;80;21142;-78
2021/03/31 05:04:33;;;;;;;30.95;17.12;;;;;;;4.24;67.90;101184.53;1760016;81;21173;-79
2021/03/31 05:07:02;;;;;;;31.12;18.17;;;;;;;4.25;68.52;101178.44;1761694;81;21301;-77
2021/03/31 05:09:30;;;;;;;32.23;17.67;;;;;;;4.25;67.58;101176.27;1764159;81;21361;-78
2021/03/31 05:12:00;;;;;;;34.95;19.25;;;;;;;4.25;67.89;101180.18;1755822;80;21298;-78
2021/03/31 05:14:28;;;;;;;33.45;19.55;;;;;;;4.27;68.56;101175.41;1695085;83;21153;-77
2021/03/31 05:16:58;;;;;;;40.90;19.90;;;;;;;4.29;68.79;101174.12;1684729;85;21181;-77
2021/03/31 05:19:27;;;;;;;41.85;19.92;;;;;;;4.29;68.02;101174.98;1684377;85;21621;-77
2021/03/31 05:21:58;;;;;;;45.00;22.25;;;;;;;4.31;68.04;101175.87;1684400;85;21225;-77
2021/03/31 05:24:27;;;;;;;39.95;21.10;;;;;;;4.33;68.02;101174.59;1683792;85;21220;-77
2021/03/31 05:26:55;;;;;;;40.95;22.85;;;;;;;4.32;68.18;101171.08;1686320;78;21109;-73
2021/03/31 05:29:23;;;;;;;40.63;22.50;;;;;;;4.31;67.81;101160.66;1729494;81;21184;-73
2021/03/31 05:31:51;;;;;;;42.93;23.65;;;;;;;4.34;68.65;101166.75;1728156;82;21156;-72
2021/03/31 05:34:19;;;;;;;42.50;23.02;;;;;;;4.39;68.58;101161.55;1727938;82;21379;-73
2021/03/31 05:36:48;;;;;;;62.00;24.82;;;;;;;4.44;68.77;101158.97;1727378;81;21164;-72
2021/03/31 05:39:17;;;;;;;38.73;22.27;;;;;;;4.51;68.78;101164.65;1714311;82;21161;-73
2021/03/31 05:41:46;;;;;;;38.02;22.10;;;;;;;4.54;68.06;101159.47;1729843;79;21209;-76
2021/03/31 05:44:15;;;;;;;39.92;22.35;;;;;;;4.60;68.18;101160.77;1716053;83;21670;-78
2021/03/31 05:46:43;;;;;;;41.80;21.60;;;;;;;4.62;67.78;101149.91;1716567;82;21372;-77
2021/03/31 05:49:12;;;;;;;50.83;25.50;;;;;;;4.59;67.53;101148.17;1716265;83;21187;-76
2021/03/31 05:51:41;;;;;;;53.90;26.35;;;;;;;4.61;67.91;101163.40;1715003;82;21146;-76
2021/03/31 05:54:09;;;;;;;49.83;25.55;;;;;;;4.62;67.92;101159.05;1710387;84;21134;-76
2021/03/31 05:56:52;;;;;;;49.13;25.73;;;;;;;4.66;68.67;101152.98;1709052;82;21183;-76
2021/03/31 05:59:21;;;;;;;55.45;27.52;;;;;;;4.68;68.34;101143.42;1695461;83;21467;-74
2021/03/31 06:01:49;;;;;;;56.95;27.58;;;;;;;4.72;68.32;101142.58;1683572;83;21219;-70
2021/03/31 06:04:17;;;;;;;58.87;28.95;;;;;;;4.74;67.58;101144.76;1696381;83;21698;-71
2021/03/31 06:06:45;;;;;;;53.85;29.67;;;;;;;4.77;68.01;101140.84;1681012;83;21200;-69
2021/03/31 06:09:14;;;;;;;50.92;28.07;;;;;;;4.82;67.67;101143.02;1686141;83;21190;-70
2021/03/31 06:11:58;;;;;;;53.05;28.83;;;;;;;4.87;67.83;101135.64;1695189;79;21453;-73
2021/03/31 06:14:37;;;;;;;54.23;28.57;;;;;;;4.91;67.59;101133.48;1772569;80;22311;-74
2021/03/31 06:17:13;;;;;;;52.75;28.45;;;;;;;4.95;67.15;101139.16;1747845;80;21553;-74
2021/03/31 06:19:45;;;;;;;48.92;27.87;;;;;;;5.00;67.48;101134.38;1722165;80;21403;-73
2021/03/31 06:22:30;;;;;;;44.33;24.50;;;;;;;5.06;68.26;101137.41;1698173;83;21194;-75
2021/03/31 06:25:11;;;;;;;47.73;26.40;;;;;;;5.13;67.53;101133.08;1679452;84;22378;-74
2021/03/31 06:27:40;;;;;;;48.23;25.77;;;;;;;5.17;67.64;101133.08;1640924;83;21185;-76
2021/03/31 06:30:24;;;;;;;55.63;32.13;;;;;;;5.24;66.46;101134.86;1639418;85;21224;-73
2021/03/31 06:32:53;;;;;;;52.40;29.32;;;;;;;5.28;66.67;101136.16;1642908;86;21226;-71
2021/03/31 06:35:24;;;;;;;52.27;29.77;;;;;;;5.30;66.78;101136.59;1628417;86;21216;-73
2021/03/31 06:38:08;;;;;;;53.63;28.15;;;;;;;5.32;67.00;101133.98;1608405;87;21201;-74
2021/03/31 06:43:25;;;;;;;63.10;33.53;;;;;;;5.43;67.24;101124.42;1800281;75;26711;-74
2021/03/31 06:48:46;;;;;;;61.63;34.45;;;;;;;5.51;67.03;101131.80;1883273;73;28558;-70
2021/03/31 06:51:29;;;;;;;64.47;31.57;;;;;;;5.51;67.86;101133.11;1834249;75;21049;-71
2021/03/31 06:54:20;;;;;;;63.87;33.33;;;;;;;5.49;66.96;101124.39;1838501;75;22373;-75
2021/03/31 06:56:56;;;;;;;59.65;31.70;;;;;;;5.54;67.99;101126.56;1834304;75;20970;-78
2021/03/31 06:59:31;;;;;;;58.73;33.20;;;;;;;5.60;68.64;101116.56;1808653;77;26156;-78
2021/03/31 07:02:02;;;;;;;58.08;32.80;;;;;;;5.65;69.12;101120.90;1738582;80;21608;-75
2021/03/31 07:04:31;;;;;;;51.02;27.62;;;;;;;5.68;67.71;101113.08;1740505;80;21144;-75
2021/03/31 07:07:03;;;;;;;61.05;33.42;;;;;;;5.74;67.96;101119.16;1732900;80;21387;-69
2021/03/31 07:09:32;;;;;;;61.90;32.75;;;;;;;5.76;67.70;101116.11;1741169;80;21217;-71
2021/03/31 07:12:01;;;;;;;53.78;31.87;;;;;;;5.80;67.94;101111.32;1744354;78;21273;-68
2021/03/31 07:14:29;;;;;;;62.58;34.45;;;;;;;5.84;68.27;101113.03;1776294;80;21268;-65
2021/03/31 07:16:57;;;;;;;57.48;33.88;;;;;;;5.85;68.28;101112.17;1774735;80;21225;-65
2021/03/31 07:19:26;;;;;;;57.00;31.93;;;;;;;5.91;68.62;101111.28;1753244;80;21204;-66
2021/03/31 07:21:56;;;;;;;55.80;32.33;;;;;;;5.94;68.15;101109.58;1774010;80;21206;-64
2021/03/31 07:24:24;;;;;;;55.90;31.12;;;;;;;5.99;68.15;101106.95;1769226;79;21173;-65
2021/03/31 07:26:55;;;;;;;56.88;29.63;;;;;;;6.05;68.62;101105.19;1777279;76;21104;-68
2021/03/31 07:29:25;;;;;;;63.23;32.03;;;;;;;6.13;68.56;101099.06;1725849;81;21250;-68
2021/03/31 07:31:53;;;;;;;52.30;29.63;;;;;;;6.17;68.61;101092.95;1729211;81;22154;-69
2021/03/31 07:34:28;;;;;;;54.40;30.40;;;;;;;6.22;68.62;101094.66;1721453;81;21194;-68
2021/03/31 07:36:56;;;;;;;52.98;28.12;;;;;;;6.27;67.95;101094.64;1696913;83;21228;-68
2021/03/31 07:39:28;;;;;;;57.27;28.62;;;;;;;6.31;68.16;101093.77;1727572;81;21232;-69
2021/03/31 07:41:57;;;;;;;46.95;27.27;;;;;;;6.33;67.98;101086.78;1718615;78;21150;-66
2021/03/31 07:44:30;;;;;;;47.15;27.48;;;;;;;6.39;68.50;101086.73;1653725;85;21217;-65
2021/03/31 07:46:58;;;;;;;43.90;25.30;;;;;;;6.44;68.03;101088.02;1683060;84;21306;-66
2021/03/31 07:49:27;;;;;;;56.77;25.57;;;;;;;6.51;68.74;101094.55;1668420;85;21713;-65
2021/03/31 07:52:02;;;;;;;38.45;23.38;;;;;;;6.58;67.71;101084.02;1667657;84;21214;-65
2021/03/31 07:54:34;;;;;;;44.70;24.07;;;;;;;6.63;67.34;101088.82;1661719;85;21680;-64
2021/03/31 07:57:26;;;;;;;41.20;22.65;;;;;;;6.67;67.36;101076.12;1682204;80;21217;-68
2021/03/31 07:59:56;;;;;;;41.55;21.12;;;;;;;6.74;67.31;101080.47;1729175;81;29606;-68
2021/03/31 08:02:26;;;;;;;33.30;19.07;;;;;;;6.84;68.69;101076.90;1730122;81;21468;-67
2021/03/31 08:05:08;;;;;;;;;;;;;;;6.94;67.95;101073.33;1732208;81;21191;-68
2021/03/31 08:07:36;;;;;;;45.78;21.85;;;;;;;7.03;67.38;101071.53;1727115;81;20285;-69
2021/03/31 08:10:35;;;;;;;42.90;22.55;;;;;;;7.07;66.33;101070.64;1726288;82;21397;-68
2021/03/31 08:13:30;;;;;;;35.05;20.00;;;;;;;7.11;66.79;101064.50;1758297;77;21167;-64
2021/03/31 08:16:00;;;;;;;36.48;19.10;;;;;;;7.22;66.38;101067.02;1758721;80;21197;-64
2021/03/31 08:18:29;;;;;;;40.30;21.73;;;;;;;7.37;66.58;101063.41;1785297;79;21170;-64
2021/03/31 08:20:57;;;;;;;37.53;19.12;;;;;;;7.48;66.61;101061.56;1738904;81;21208;-64
2021/03/31 08:23:48;;;;;;;38.00;21.07;;;;;;;7.55;66.24;101051.45;1749796;80;21643;-64
2021/03/31 08:26:35;;;;;;;40.85;23.35;;;;;;;7.58;66.06;101052.72;1756605;80;21663;-63
2021/03/31 08:29:08;;;;;;;55.85;26.57;;;;;;;7.65;65.53;101053.08;1812132;78;21151;-69
2021/03/31 08:31:41;;;;;;;41.70;24.10;;;;;;;7.72;65.44;101048.19;1810168;78;21199;-69
2021/03/31 08:34:12;;;;;;;43.60;26.37;;;;;;;7.83;65.15;101050.70;1805396;78;21100;-69
2021/03/31 08:36:42;;;;;;;43.90;27.17;;;;;;;7.91;64.95;101040.13;1799975;78;21332;-67
2021/03/31 08:39:12;;;;;;;52.10;27.15;;;;;;;7.99;65.22;101046.16;1803560;78;21185;-68
2021/03/31 08:41:45;;;;;;;50.78;29.42;;;;;;;8.07;65.59;101036.42;1784173;79;21211;-68
2021/03/31 08:44:26;;;;;;;48.00;26.37;;;;;;;8.18;65.38;101038.47;1760676;78;21204;-65
2021/03/31 08:47:11;;;;;;;50.75;28.23;;;;;;;8.30;65.88;101039.20;1731105;81;21292;-65
2021/03/31 08:49:43;;;;;;;47.60;25.65;;;;;;;8.39;65.43;101032.52;1713634;82;22303;-64
2021/03/31 08:52:14;;;;;;;53.33;27.80;;;;;;;8.47;64.03;101030.70;1726867;82;21198;-64
2021/03/31 08:54:53;;;;;;;52.20;26.70;;;;;;;8.55;63.73;101030.59;1683991;84;21212;-67
2021/03/31 08:57:28;;;;;;;45.03;26.20;;;;;;;8.60;63.03;101034.91;1700160;79;21092;-73
2021/03/31 08:59:59;;;;;;;44.58;26.12;;;;;;;8.68;63.37;101036.55;1765858;79;21707;-73
2021/03/31 09:02:31;;;;;;;49.20;25.52;;;;;;;8.74;62.60;101031.17;1770580;80;21203;-73
2021/03/31 09:05:03;;;;;;;50.38;26.35;;;;;;;8.81;62.35;101035.44;1746135;80;21603;-73
2021/03/31 09:07:32;;;;;;;49.65;25.92;;;;;;;8.87;62.61;101031.42;1753813;80;21149;-73
2021/03/31 09:10:01;;;;;;;43.33;26.40;;;;;;;8.88;61.77;101030.97;1763939;79;21143;-75
2021/03/31 09:12:29;;;;;;;63.42;28.00;;;;;;;8.88;61.51;101029.23;1766888;77;21139;-66
2021/03/31 09:15:02;;;;;;;49.20;25.80;;;;;;;8.91;61.89;101023.92;1799533;78;21289;-66
2021/03/31 09:17:34;;;;;;;43.05;27.02;;;;;;;8.97;61.83;101027.77;1856722;75;21119;-66
2021/03/31 09:20:08;;;;;;;43.52;27.65;;;;;;;9.07;61.40;101023.69;1859405;75;21107;-66
2021/03/31 09:22:37;;;;;;;47.90;28.90;;;;;;;9.12;61.02;101024.02;1856984;75;21138;-66
2021/03/31 09:25:12;;;;;;;50.27;29.33;;;;;;;9.19;60.83;101019.52;1852610;75;21189;-64
2021/03/31 09:27:42;;;;;;;60.20;33.02;;;;;;;9.29;61.47;101015.83;1822078;75;21261;-76
2021/03/31 09:30:14;;;;;;;55.75;28.65;;;;;;;9.44;60.78;101022.14;1647403;86;21208;-72
2021/03/31 09:32:58;;;;;;;48.42;27.58;;;;;;;9.47;60.29;101020.35;1669203;85;21308;-66
2021/03/31 09:35:24;;;;;;;53.38;28.77;;;;;;;9.52;60.82;101021.98;1674095;84;22112;-68
2021/03/31 09:37:56;;;;;;;50.15;26.17;;;;;;;9.61;60.43;101015.70;1671340;84;21233;-67
2021/03/31 09:40:28;;;;;;;41.85;24.45;;;;;;;9.66;60.48;101021.73;1662285;85;22313;-67
2021/03/31 09:43:02;;;;;;;43.87;24.60;;;;;;;9.72;60.24;101017.67;1688186;79;21476;-66
2021/03/31 09:45:34;;;;;;;56.73;28.95;;;;;;;9.72;60.24;101017.67;1792115;78;22302;-66
2021/03/31 09:48:04;;;;;;;53.38;29.75;;;;;;;9.78;60.50;101016.25;1737414;81;21094;-65
2021/03/31 09:50:35;;;;;;;53.17;27.95;;;;;;;9.84;59.44;101013.48;1739811;81;21576;-66
2021/03/31 09:53:08;;;;;;;47.43;27.07;;;;;;;9.87;59.62;101009.49;1820106;77;21369;-65
2021/03/31 09:55:37;;;;;;;46.90;26.40;;;;;;;9.86;59.25;101010.37;1827237;76;21435;-66
2021/03/31 09:58:07;;;;;;;49.30;25.60;;;;;;;9.86;59.51;101005.11;1795771;77;21526;-66
2021/03/31 10:00:40;;;;;;;44.75;25.08;;;;;;;9.86;59.05;101009.05;1803165;78;22010;-67
2021/03/31 10:03:10;;;;;;;39.92;24.92;;;;;;;9.85;59.45;101006.02;1780345;79;21138;-67
2021/03/31 10:05:40;;;;;;;45.45;26.12;;;;;;;9.89;60.07;101002.86;1752523;81;21384;-67
2021/03/31 10:08:20;;;;;;;41.40;24.47;;;;;;;9.88;60.78;101007.72;1757703;79;21192;-65
2021/03/31 10:10:50;;;;;;;48.02;26.75;;;;;;;9.91;60.58;101004.16;1745171;80;21208;-66
2021/03/31 10:13:22;;;;;;;49.33;25.85;;;;;;;9.93;60.09;100994.47;1764195;75;21183;-66
2021/03/31 10:16:00;;;;;;;49.50;27.10;;;;;;;9.93;59.77;100985.27;1769315;79;21618;-65
2021/03/31 10:18:32;;;;;;;43.58;25.80;;;;;;;9.92;59.39;100987.49;1749892;80;21412;-65
2021/03/31 10:21:01;;;;;;;46.15;27.15;;;;;;;9.94;59.14;100985.24;1770983;79;21651;-64
2021/03/31 10:23:35;;;;;;;54.60;27.25;;;;;;;9.95;59.42;100986.96;1767099;79;21194;-64
2021/03/31 10:26:23;;;;;;;54.03;27.98;;;;;;;10.03;59.24;100981.52;1723824;80;21761;-67
2021/03/31 10:29:06;;;;;;;46.90;26.33;;;;;;;10.09;58.97;100987.98;1746912;80;21148;-66
2021/03/31 10:31:44;;;;;;;50.00;26.30;;;;;;;10.16;59.17;100990.90;1742628;80;22367;-67
2021/03/31 10:34:10;;;;;;;51.68;28.07;;;;;;;10.16;59.52;100981.69;1741046;81;21198;-66
2021/03/31 10:57:05;;;;;;;49.25;27.13;;;;;;;10.56;57.87;100968.99;1883451;76;28207;-64
2021/03/31 10:59:26;;;;;;;48.28;27.27;;;;;;;10.59;58.58;100966.27;1759971;75;21633;-69
2021/03/31 11:01:57;;;;;;;45.58;27.70;;;;;;;10.68;59.33;100962.56;1758355;80;24985;-68
2021/03/31 11:04:25;;;;;;;44.58;25.25;;;;;;;10.79;58.20;100964.91;1737725;80;21185;-67
2021/03/31 11:06:53;;;;;;;51.75;28.92;;;;;;;10.85;59.11;100960.82;1736761;80;21165;-68
2021/03/31 11:09:24;;;;;;;46.28;27.13;;;;;;;10.92;57.89;100949.22;1747694;80;21209;-68
2021/03/31 11:11:53;;;;;;;47.33;27.07;;;;;;;10.99;56.97;100949.47;1749434;80;21161;-67
2021/03/31 11:14:24;;;;;;;56.23;32.20;;;;;;;11.04;56.52;100946.28;1749537;79;21235;-63
2021/03/31 11:16:58;;;;;;;227.18;99.55;;;;;;;11.12;56.83;100953.53;1759668;80;21186;-63
2021/03/31 11:27:42;;;;;;;56.63;27.45;;;;;;;11.55;55.88;100937.86;1748076;81;21384;-63
2021/03/31 11:30:14;;;;;;;49.55;28.67;;;;;;;11.59;56.63;100923.26;1751987;80;21801;-70
2021/03/31 11:32:42;;;;;;;51.68;28.75;;;;;;;11.60;55.16;100914.45;1722243;81;21153;-71
2021/03/31 11:35:12;;;;;;;65.15;33.55;;;;;;;11.60;55.21;100918.41;1776344;79;21638;-71
2021/03/31 11:37:41;;;;;;;54.30;30.55;;;;;;;11.63;55.52;100923.59;1778882;78;21158;-72
2021/03/31 11:40:12;;;;;;;51.20;29.70;;;;;;;11.72;54.85;100919.36;1799555;78;21531;-73
2021/03/31 11:42:39;;;;;;;63.20;31.60;;;;;;;11.81;55.01;100912.50;1801939;78;21695;-72
2021/03/31 11:45:10;;;;;;;54.93;29.77;;;;;;;11.86;55.08;100910.58;1781238;78;21181;-66
2021/03/31 11:47:40;;;;;;;60.40;32.83;;;;;;;11.92;54.71;100906.48;1751619;80;21283;-67
2021/03/31 11:50:11;;;;;;;64.27;32.80;;;;;;;12.08;54.63;100909.98;1749970;81;21571;-63
2021/03/31 11:52:39;;;;;;;52.95;30.12;;;;;;;12.22;54.44;100909.09;1760985;80;22543;-65
2021/03/31 11:55:09;;;;;;;48.38;29.80;;;;;;;12.29;54.97;100902.70;1744425;81;21202;-65
2021/03/31 11:57:37;;;;;;;49.05;28.45;;;;;;;12.41;54.64;100908.50;1734832;81;21160;-63
2021/03/31 12:00:07;;;;;;;48.55;27.42;;;;;;;12.55;54.37;100903.62;1738688;78;21374;-69
2021/03/31 12:02:37;;;;;;;49.67;29.25;;;;;;;12.69;54.56;100901.39;1692767;84;21126;-76
2021/03/31 12:05:06;;;;;;;45.75;26.65;;;;;;;12.76;53.68;100900.26;1696667;84;21201;-72
2021/03/31 12:07:34;;;;;;;49.25;27.45;;;;;;;12.69;55.44;100897.42;1696525;84;21213;-73
2021/03/31 12:10:07;;;;;;;47.50;28.40;;;;;;;12.70;54.46;100897.84;1714744;83;21196;-72
2021/03/31 12:12:34;;;;;;;50.33;30.50;;;;;;;12.75;54.11;100893.26;1722097;83;21198;-74
2021/03/31 12:15:08;;;;;;;51.40;29.52;;;;;;;12.79;53.06;100883.00;1714830;81;21225;-67